| time (UTC) | temp C | wind direction | speed KPH | gust KPH | rain 1hr cm | rain 24hr cm | rain mn cm | humidity % | barometer mb |
| 20260510064805 | 15 | 164 | 3.2 | 19.3 | 0.00 | 0.28 | 0.18 | 89 | 1011.8 |
| 20260510064304 | 15 | 137 | 4.8 | 14.5 | 0.00 | 0.28 | 0.18 | 89 | 1012.1 |
| 20260510063804 | 15 | 120 | 4.8 | 12.9 | 0.00 | 0.28 | 0.18 | 90 | 1012.0 |
| 20260510063304 | 15 | 173 | 4.8 | 19.3 | 0.00 | 0.28 | 0.18 | 90 | 1012.0 |
| 20260510061804 | 15 | 133 | 4.8 | 9.7 | 0.00 | 0.28 | 0.18 | 90 | 1011.8 |
| 20260510061305 | 14 | 99 | 4.8 | 9.7 | 0.00 | 0.28 | 0.18 | 91 | 1011.8 |
| 20260510060304 | 13 | 135 | 3.2 | 11.3 | 0.00 | 0.28 | 0.18 | 94 | 1011.7 |
| 20260510054804 | 13 | 127 | 1.6 | 8.0 | 0.00 | 0.28 | 0.18 | 98 | 1011.9 |
| 20260510054305 | 12 | 123 | 1.6 | 8.0 | 0.00 | 0.28 | 0.18 | 98 | 1011.8 |
| 20260510053804 | 12 | 40 | 0.0 | 3.2 | 0.00 | 0.28 | 0.18 | 98 | 1011.7 |
| 20260510053303 | 12 | 60 | 3.2 | 4.8 | 0.00 | 0.28 | 0.18 | 98 | 1011.9 |
| 20260510051803 | 12 | 32 | 3.2 | 8.0 | 0.00 | 0.28 | 0.18 | 98 | 1011.5 |
| 20260510050804 | 12 | 126 | 1.6 | 3.2 | 0.00 | 0.28 | 0.18 | 98 | 1011.6 |
| 20260510044805 | 11 | 333 | 0.0 | 3.2 | 0.00 | 0.28 | 0.18 | 98 | 1011.6 |
| 20260510043804 | 11 | 94 | 0.0 | 1.6 | 0.00 | 0.28 | 0.18 | 98 | 1011.6 |
| 20260510043303 | 11 | 68 | 1.6 | 3.2 | 0.00 | 0.28 | 0.18 | 98 | 1011.7 |
| 20260510041805 | 11 | 347 | 1.6 | 3.2 | 0.00 | 0.28 | 0.18 | 98 | 1012.0 |
| 20260510041304 | 12 | 68 | 1.6 | 3.2 | 0.00 | 0.28 | 0.18 | 98 | 1011.7 |
| 20260510040804 | 12 | 89 | 1.6 | 3.2 | 0.00 | 0.28 | 0.18 | 98 | 1011.9 |
| 20260510034803 | 12 | 109 | 0.0 | 3.2 | 0.00 | 0.28 | 0.18 | 98 | 1012.4 |
| 20260510034303 | 12 | 62 | 0.0 | 1.6 | 0.00 | 0.28 | 0.18 | 98 | 1012.3 |
| 20260510033804 | 12 | 111 | 0.0 | 3.2 | 0.00 | 0.28 | 0.18 | 98 | 1012.1 |
| 20260510033303 | 12 | 104 | 3.2 | 3.2 | 0.00 | 0.28 | 0.18 | 98 | 1012.0 |
| 20260510031303 | 12 | 83 | 0.0 | 1.6 | 0.00 | 0.28 | 0.18 | 98 | 1012.2 |
| 20260510030804 | 12 | 207 | 0.0 | 1.6 | 0.00 | 0.28 | 0.18 | 98 | 1012.3 |
| 20260510030304 | 12 | 241 | 0.0 | 1.6 | 0.00 | 0.28 | 0.18 | 98 | 1012.4 |
| 20260510024806 | 12 | 188 | 0.0 | 1.6 | 0.03 | 0.28 | 0.18 | 97 | 1012.5 |
| 20260510024305 | 12 | 128 | 0.0 | 1.6 | 0.03 | 0.28 | 0.18 | 97 | 1012.2 |
| 20260510023806 | 12 | 110 | 3.2 | 3.2 | 0.05 | 0.28 | 0.18 | 97 | 1012.4 |
| 20260510023306 | 12 | 112 | 1.6 | 4.8 | 0.05 | 0.28 | 0.18 | 97 | 1012.4 |
| 20260510021805 | 12 | 90 | 3.2 | 4.8 | 0.13 | 0.28 | 0.18 | 97 | 1012.5 |
| 20260510021305 | 12 | 116 | 1.6 | 4.8 | 0.13 | 0.28 | 0.18 | 97 | 1012.7 |
| 20260510020805 | 12 | 94 | 1.6 | 3.2 | 0.13 | 0.28 | 0.18 | 97 | 1012.7 |
| 20260510020306 | 12 | 103 | 0.0 | 3.2 | 0.13 | 0.28 | 0.18 | 97 | 1012.7 |
| 20260510014805 | 12 | 82 | 1.6 | 3.2 | 0.13 | 0.25 | 0.15 | 97 | 1012.9 |
| 20260510013806 | 12 | 99 | 0.0 | 3.2 | 0.13 | 0.23 | 0.15 | 97 | 1012.9 |
| 20260510013306 | 12 | 88 | 1.6 | 3.2 | 0.10 | 0.20 | 0.13 | 97 | 1012.9 |
| 20260510011805 | 12 | 69 | 1.6 | 1.6 | 0.05 | 0.15 | 0.05 | 97 | 1012.7 |
| 20260510011306 | 12 | 243 | 0.0 | 1.6 | 0.05 | 0.15 | 0.05 | 97 | 1012.7 |
| 20260510010805 | 12 | 22 | 0.0 | 1.6 | 0.05 | 0.15 | 0.05 | 96 | 1012.6 |
| 20260510010305 | 12 | 78 | 0.0 | 3.2 | 0.03 | 0.15 | 0.05 | 96 | 1012.7 |
| 20260510004806 | 12 | 120 | 0.0 | 0.0 | 0.03 | 0.13 | 0.05 | 96 | 1012.7 |
| 20260510004307 | 12 | 95 | 0.0 | 1.6 | 0.00 | 0.13 | 0.03 | 96 | 1012.3 |
| 20260510003806 | 12 | 99 | 0.0 | 1.6 | 0.03 | 0.13 | 0.03 | 96 | 1012.5 |
| 20260510003305 | 12 | 133 | 0.0 | 1.6 | 0.00 | 0.10 | 0.03 | 96 | 1012.6 |
| 20260510001805 | 12 | 51 | 0.0 | 3.2 | 0.03 | 0.10 | 0.03 | 95 | 1012.7 |
| 20260510001305 | 12 | 68 | 1.6 | 3.2 | 0.03 | 0.10 | 0.03 | 95 | 1012.7 |
| 20260510000805 | 12 | 77 | 0.0 | 3.2 | 0.03 | 0.10 | 0.03 | 95 | 1012.8 |
| 20260510000306 | 12 | 59 | 3.2 | 4.8 | 0.03 | 0.10 | 0.03 | 95 | 1012.6 |
| 20260509234806 | 12 | 50 | 0.0 | 1.6 | 0.03 | 0.10 | 0.03 | 94 | 1013.1 |
| 20260509234305 | 12 | 269 | 0.0 | 1.6 | 0.03 | 0.10 | 0.03 | 94 | 1012.9 |
| 20260509233805 | 12 | 135 | 0.0 | 3.2 | 0.00 | 0.10 | 0.00 | 93 | 1012.9 |
| 20260509233305 | 12 | 83 | 1.6 | 3.2 | 0.00 | 0.10 | 0.00 | 92 | 1012.7 |
| 20260509231805 | 12 | 113 | 0.0 | 8.0 | 0.00 | 0.10 | 0.00 | 92 | 1013.3 |
| 20260509231305 | 12 | 262 | 0.0 | 3.2 | 0.00 | 0.10 | 0.00 | 93 | 1013.3 |
| 20260509230806 | 12 | 259 | 3.2 | 8.0 | 0.00 | 0.10 | 0.00 | 93 | 1013.1 |
| 20260509230305 | 12 | 264 | 1.6 | 4.8 | 0.00 | 0.10 | 0.00 | 93 | 1013.2 |
| 20260509224806 | 12 | 224 | 0.0 | 1.6 | 0.00 | 0.10 | 0.00 | 93 | 1013.1 |
| 20260509224306 | 12 | 115 | 0.0 | 3.2 | 0.00 | 0.10 | 0.00 | 92 | 1013.1 |
| 20260509223806 | 12 | 113 | 0.0 | 3.2 | 0.03 | 0.10 | 0.00 | 91 | 1013.1 |
| 20260509223305 | 12 | 182 | 1.6 | 4.8 | 0.05 | 0.10 | 0.00 | 92 | 1013.4 |
| 20260509221806 | 13 | 91 | 1.6 | 8.0 | 0.00 | 0.10 | 0.00 | 88 | 1013.2 |
| 20260509221305 | 13 | 88 | 1.6 | 9.7 | 0.00 | 0.10 | 0.00 | 88 | 1012.7 |
| 20260509220805 | 13 | 47 | 3.2 | 9.7 | 0.00 | 0.10 | 0.00 | 87 | 1013.0 |
| 20260509220305 | 13 | 86 | 3.2 | 19.3 | 0.00 | 0.10 | 0.00 | 87 | 1012.9 |
| 20260509214805 | 13 | 85 | 6.4 | 19.3 | 0.10 | 0.10 | 0.10 | 88 | 1013.0 |
| 20260509214304 | 13 | 96 | 8.0 | 11.3 | 0.10 | 0.10 | 0.10 | 87 | 1013.0 |
| 20260509213805 | 13 | 91 | 1.6 | 8.0 | 0.08 | 0.08 | 0.08 | 86 | 1013.2 |
| 20260509213306 | 14 | 119 | 1.6 | 8.0 | 0.05 | 0.05 | 0.05 | 87 | 1013.6 |
| 20260509211806 | 15 | 166 | 1.6 | 11.3 | 0.00 | 0.00 | 0.00 | 76 | 1014.0 |
| 20260509211305 | 15 | 117 | 1.6 | 9.7 | 0.00 | 0.00 | 0.00 | 74 | 1013.7 |
| 20260509210804 | 15 | 74 | 1.6 | 3.2 | 0.00 | 0.00 | 0.00 | 72 | 1013.4 |
| 20260509210305 | 15 | 217 | 1.6 | 9.7 | 0.00 | 0.00 | 0.00 | 71 | 1013.3 |
| 20260509204805 | 16 | 102 | 3.2 | 14.5 | 0.00 | 0.00 | 0.00 | 68 | 1013.1 |
| 20260509203805 | 16 | 111 | 4.8 | 19.3 | 0.00 | 0.00 | 0.00 | 64 | 1013.5 |
| 20260509203305 | 16 | 112 | 4.8 | 14.5 | 0.00 | 0.00 | 0.00 | 64 | 1013.5 |
| 20260509201804 | 17 | 134 | 3.2 | 12.9 | 0.00 | 0.00 | 0.00 | 63 | 1013.6 |
| 20260509201305 | 17 | 116 | 3.2 | 11.3 | 0.00 | 0.00 | 0.00 | 63 | 1013.3 |
| 20260509200806 | 17 | 108 | 1.6 | 16.1 | 0.00 | 0.00 | 0.00 | 63 | 1013.4 |
| 20260509200305 | 17 | 119 | 3.2 | 16.1 | 0.00 | 0.00 | 0.00 | 63 | 1013.3 |
| 20260509194804 | 17 | 100 | 3.2 | 9.7 | 0.00 | 0.00 | 0.00 | 63 | 1013.6 |
| 20260509194306 | 17 | 112 | 3.2 | 11.3 | 0.00 | 0.00 | 0.00 | 63 | 1013.1 |
| 20260509193805 | 17 | 117 | 4.8 | 12.9 | 0.00 | 0.00 | 0.00 | 63 | 1013.3 |
| 20260509193306 | 17 | 94 | 9.7 | 19.3 | 0.00 | 0.00 | 0.00 | 63 | 1013.1 |
| 20260509191806 | 17 | 104 | 4.8 | 14.5 | 0.00 | 0.00 | 0.00 | 62 | 1013.0 |
| 20260509191305 | 17 | 117 | 3.2 | 9.7 | 0.00 | 0.00 | 0.00 | 63 | 1013.0 |
| 20260509190805 | 17 | 146 | 3.2 | 9.7 | 0.00 | 0.00 | 0.00 | 62 | 1013.3 |
| 20260509190305 | 16 | 113 | 1.6 | 4.8 | 0.00 | 0.00 | 0.00 | 64 | 1013.3 |
| 20260509184805 | 16 | 156 | 3.2 | 8.0 | 0.00 | 0.00 | 0.00 | 65 | 1012.9 |
| 20260509184304 | 16 | 125 | 1.6 | 4.8 | 0.00 | 0.00 | 0.00 | 67 | 1012.7 |
| 20260509183805 | 17 | 129 | 0.0 | 3.2 | 0.00 | 0.00 | 0.00 | 67 | 1012.7 |
| 20260509183304 | 17 | 150 | 1.6 | 16.1 | 0.00 | 0.00 | 0.00 | 66 | 1012.8 |
| 20260509181804 | 17 | 114 | 1.6 | 11.3 | 0.00 | 0.00 | 0.00 | 65 | 1013.0 |
| 20260509181304 | 17 | 124 | 3.2 | 22.5 | 0.00 | 0.00 | 0.00 | 65 | 1013.0 |
| 20260509180306 | 17 | 113 | 4.8 | 25.7 | 0.00 | 0.00 | 0.00 | 65 | 1012.7 |
| 20260509174804 | 17 | 114 | 4.8 | 16.1 | 0.00 | 0.00 | 0.00 | 64 | 1012.6 |
| 20260509174305 | 17 | 98 | 3.2 | 12.9 | 0.00 | 0.00 | 0.00 | 64 | 1012.6 |
| 20260509173805 | 17 | 140 | 4.8 | 11.3 | 0.00 | 0.00 | 0.00 | 64 | 1012.7 |
| 20260509173304 | 18 | 109 | 3.2 | 16.1 | 0.00 | 0.00 | 0.00 | 64 | 1012.8 |
| 20260509171805 | 18 | 122 | 4.8 | 12.9 | 0.00 | 0.00 | 0.00 | 64 | 1012.8 |
| 20260509171306 | 18 | 126 | 1.6 | 8.0 | 0.00 | 0.00 | 0.00 | 65 | 1013.0 |
| 20260509170805 | 18 | 128 | 1.6 | 4.8 | 0.00 | 0.00 | 0.00 | 65 | 1013.2 |
| 20260509170306 | 18 | 152 | 3.2 | 12.9 | 0.00 | 0.00 | 0.00 | 64 | 1012.8 |
| 20260509164805 | 18 | 92 | 3.2 | 9.7 | 0.00 | 0.00 | 0.00 | 64 | 1012.7 |
| 20260509164307 | 18 | 119 | 3.2 | 9.7 | 0.00 | 0.00 | 0.00 | 63 | 1012.7 |
| 20260509163805 | 18 | 102 | 3.2 | 12.9 | 0.00 | 0.00 | 0.00 | 63 | 1012.5 |
| 20260509163306 | 18 | 121 | 4.8 | 19.3 | 0.00 | 0.00 | 0.00 | 62 | 1012.7 |
| 20260509161804 | 19 | 121 | 4.8 | 20.9 | 0.00 | 0.00 | 0.00 | 60 | 1012.4 |
| 20260509161306 | 19 | 147 | 4.8 | 12.9 | 0.00 | 0.00 | 0.00 | 59 | 1012.4 |
| 20260509160805 | 20 | 130 | 4.8 | 12.9 | 0.00 | 0.00 | 0.00 | 59 | 1012.5 |
| 20260509160304 | 20 | 122 | 3.2 | 19.3 | 0.00 | 0.00 | 0.00 | 59 | 1012.4 |
| 20260509154804 | 19 | 92 | 4.8 | 16.1 | 0.00 | 0.00 | 0.00 | 61 | 1013.0 |
| 20260509154305 | 19 | 114 | 6.4 | 12.9 | 0.00 | 0.00 | 0.00 | 60 | 1013.0 |
| 20260509153805 | 19 | 131 | 3.2 | 9.7 | 0.00 | 0.00 | 0.00 | 60 | 1013.1 |
| 20260509153305 | 19 | 126 | 4.8 | 12.9 | 0.00 | 0.00 | 0.00 | 60 | 1013.0 |
| 20260509151805 | 20 | 71 | 6.4 | 20.9 | 0.00 | 0.00 | 0.00 | 56 | 1013.0 |
| 20260509150805 | 21 | 204 | 1.6 | 14.5 | 0.00 | 0.00 | 0.00 | 56 | 1013.2 |
| 20260509150306 | 20 | 130 | 4.8 | 24.1 | 0.00 | 0.00 | 0.00 | 55 | 1013.4 |
| 20260509144804 | 20 | 168 | 4.8 | 11.3 | 0.00 | 0.00 | 0.00 | 53 | 1013.6 |
| 20260509143305 | 21 | 149 | 1.6 | 16.1 | 0.00 | 0.00 | 0.00 | 53 | 1013.4 |
| 20260509140306 | 20 | 123 | 3.2 | 16.1 | 0.00 | 0.00 | 0.00 | 47 | 1013.9 |
| 20260509134804 | 20 | 157 | 8.0 | 24.1 | 0.00 | 0.00 | 0.00 | 46 | 1014.4 |
| 20260509133804 | 20 | 111 | 9.7 | 24.1 | 0.00 | 0.00 | 0.00 | 49 | 1014.2 |
| 20260509131804 | 20 | 118 | 6.4 | 12.9 | 0.00 | 0.00 | 0.00 | 54 | 1014.4 |
| 20260509130805 | 20 | 100 | 14.5 | 24.1 | 0.00 | 0.00 | 0.00 | 51 | 1014.6 |
| 20260509130305 | 20 | 109 | 8.0 | 25.7 | 0.00 | 0.00 | 0.00 | 50 | 1014.6 |
| 20260509124806 | 20 | 152 | 4.8 | 19.3 | 0.00 | 0.00 | 0.00 | 50 | 1014.8 |
| 20260509124304 | 20 | 180 | 4.8 | 20.9 | 0.00 | 0.00 | 0.00 | 50 | 1014.4 |
| 20260509123805 | 20 | 141 | 3.2 | 9.7 | 0.00 | 0.00 | 0.00 | 52 | 1014.6 |
| 20260509121304 | 20 | 119 | 9.7 | 19.3 | 0.00 | 0.00 | 0.00 | 48 | 1014.7 |
| 20260509120804 | 21 | 153 | 3.2 | 14.5 | 0.00 | 0.00 | 0.00 | 49 | 1014.9 |
| 20260509114805 | 20 | 122 | 4.8 | 22.5 | 0.00 | 0.00 | 0.00 | 47 | 1015.2 |
| 20260509113804 | 21 | 115 | 6.4 | 22.5 | 0.00 | 0.00 | 0.00 | 46 | 1015.1 |
| 20260509113304 | 20 | 174 | 6.4 | 24.1 | 0.00 | 0.00 | 0.00 | 46 | 1015.2 |
| 20260509111804 | 20 | 124 | 3.2 | 20.9 | 0.00 | 0.00 | 0.00 | 50 | 1015.3 |
| 20260509111304 | 20 | 113 | 6.4 | 19.3 | 0.00 | 0.00 | 0.00 | 46 | 1015.3 |
| 20260509110304 | 20 | 97 | 6.4 | 20.9 | 0.00 | 0.00 | 0.00 | 48 | 1015.7 |
| 20260509104804 | 20 | 121 | 8.0 | 22.5 | 0.00 | 0.00 | 0.00 | 49 | 1015.2 |
| 20260509104306 | 20 | 97 | 8.0 | 19.3 | 0.00 | 0.00 | 0.00 | 46 | 1015.7 |
| 20260509103804 | 20 | 124 | 3.2 | 14.5 | 0.00 | 0.00 | 0.00 | 47 | 1015.5 |
| 20260509103305 | 20 | 115 | 8.0 | 20.9 | 0.00 | 0.00 | 0.00 | 46 | 1015.5 |
| 20260509101805 | 20 | 161 | 4.8 | 12.9 | 0.00 | 0.00 | 0.00 | 47 | 1015.6 |
| 20260509101304 | 20 | 110 | 6.4 | 14.5 | 0.00 | 0.00 | 0.00 | 47 | 1015.7 |
| 20260509100804 | 20 | 154 | 3.2 | 22.5 | 0.00 | 0.00 | 0.00 | 46 | 1015.9 |
| 20260509094304 | 20 | 103 | 8.0 | 16.1 | 0.00 | 0.00 | 0.00 | 49 | 1015.6 |
| 20260509093804 | 20 | 114 | 8.0 | 16.1 | 0.00 | 0.00 | 0.00 | 49 | 1015.7 |
| 20260509093304 | 20 | 150 | 4.8 | 24.1 | 0.00 | 0.00 | 0.00 | 48 | 1015.6 |
| 20260509091805 | 20 | 83 | 4.8 | 11.3 | 0.00 | 0.00 | 0.00 | 52 | 1015.8 |
| 20260509091306 | 20 | 126 | 3.2 | 12.9 | 0.00 | 0.00 | 0.00 | 51 | 1015.7 |
| 20260509090804 | 19 | 107 | 8.0 | 19.3 | 0.00 | 0.00 | 0.00 | 51 | 1015.8 |
| 20260509090305 | 19 | 101 | 8.0 | 14.5 | 0.00 | 0.00 | 0.00 | 51 | 1015.6 |
| 20260509084806 | 20 | 106 | 4.8 | 11.3 | 0.00 | 0.00 | 0.00 | 53 | 1016.2 |
| 20260509084304 | 19 | 101 | 8.0 | 12.9 | 0.00 | 0.00 | 0.00 | 54 | 1016.4 |
| 20260509083804 | 19 | 93 | 6.4 | 16.1 | 0.00 | 0.00 | 0.00 | 55 | 1016.1 |
| 20260509083305 | 18 | 106 | 6.4 | 16.1 | 0.00 | 0.00 | 0.00 | 55 | 1016.2 |
| 20260509081805 | 19 | 112 | 4.8 | 12.9 | 0.00 | 0.00 | 0.00 | 54 | 1016.3 |
| 20260509081305 | 20 | 99 | 4.8 | 12.9 | 0.00 | 0.00 | 0.00 | 53 | 1016.0 |
| 20260509080805 | 19 | 172 | 1.6 | 9.7 | 0.00 | 0.00 | 0.00 | 55 | 1016.0 |
| 20260509074304 | 18 | 31 | 3.2 | 4.8 | 0.00 | 0.00 | 0.00 | 60 | 1016.3 |
| 20260509073804 | 18 | 47 | 1.6 | 3.2 | 0.00 | 0.00 | 0.00 | 65 | 1016.2 |
| 20260509073305 | 17 | 39 | 0.0 | 4.8 | 0.00 | 0.00 | 0.00 | 66 | 1016.4 |
| 20260509071804 | 16 | 25 | 1.6 | 4.8 | 0.00 | 0.00 | 0.00 | 71 | 1016.8 |
| 20260509071306 | 16 | 44 | 4.8 | 8.0 | 0.00 | 0.00 | 0.00 | 70 | 1016.6 |
| 20260509070804 | 16 | 73 | 3.2 | 3.2 | 0.00 | 0.00 | 0.00 | 71 | 1016.4 |
| 20260509070305 | 16 | 70 | 3.2 | 4.8 | 0.00 | 0.00 | 0.00 | 70 | 1016.5 |